Time;durP1;ratioP1;P1;durP2;ratioP2;P2;SDS_P1;SDS_P2;PMS_P1;PMS_P2;Temp;Humidity;BMP_temperature;BMP_pressure;BME280_temperature;BME280_humidity;BME280_pressure;Samples;Min_cycle;Max_cycle;Signal;HPM_P1;HPM_P2
2024/01/28 00:01:32;;;;;;;24.60;14.75;;;;;;;-1.21;100.00;103118.59;5040943;28;20055;-72
2024/01/28 00:03:57;;;;;;;23.20;15.25;;;;;;;-1.22;100.00;103129.84;5043028;28;20048;-73
2024/01/28 00:06:22;;;;;;;23.98;15.95;;;;;;;-1.36;100.00;103099.75;5054124;28;20032;-73
2024/01/28 00:08:48;;;;;;;26.77;16.20;;;;;;;-1.33;100.00;103116.44;5045978;28;20538;-73
2024/01/28 00:11:13;;;;;;;23.50;15.50;;;;;;;-1.40;100.00;103113.53;5048584;28;20032;-72
2024/01/28 00:13:38;;;;;;;24.27;16.45;;;;;;;-1.49;100.00;103106.28;5047130;28;20268;-73
2024/01/28 00:16:04;;;;;;;27.25;16.00;;;;;;;-1.54;100.00;103100.91;5044092;28;20554;-73
2024/01/28 00:18:30;;;;;;;26.42;16.55;;;;;;;-1.51;100.00;103094.88;5047872;28;20486;-72
2024/01/28 00:20:55;;;;;;;24.75;15.73;;;;;;;-1.51;100.00;103090.53;5043643;28;20064;-72
2024/01/28 00:23:20;;;;;;;27.92;15.93;;;;;;;-1.56;100.00;103084.28;5051383;28;20090;-73
2024/01/28 00:25:46;;;;;;;24.85;15.50;;;;;;;-1.53;100.00;103087.00;5039806;28;20080;-72
2024/01/28 00:28:11;;;;;;;24.60;16.20;;;;;;;-1.60;100.00;103085.00;5044662;28;20064;-72
2024/01/28 00:30:36;;;;;;;22.33;16.13;;;;;;;-1.59;100.00;103085.88;5050843;28;20072;-72
2024/01/28 00:33:02;;;;;;;32.88;17.23;;;;;;;-1.55;100.00;103075.63;5048027;28;20131;-72
2024/01/28 00:35:27;;;;;;;26.00;16.27;;;;;;;-1.52;100.00;103075.72;5043268;28;20021;-72
2024/01/28 00:37:55;;;;;;;22.98;16.90;;;;;;;-1.53;100.00;103073.06;5044325;28;20388;-72
2024/01/28 00:40:20;;;;;;;25.00;16.58;;;;;;;-1.53;100.00;103068.72;5042084;28;20132;-72
2024/01/28 00:42:46;;;;;;;26.25;16.48;;;;;;;-1.62;100.00;103060.56;5053828;28;20032;-72
2024/01/28 00:45:11;;;;;;;22.48;16.02;;;;;;;-1.59;100.00;103073.75;5045246;28;20040;-72
2024/01/28 00:47:39;;;;;;;25.08;16.65;;;;;;;-1.68;100.00;103070.78;5044936;28;20082;-73
2024/01/28 00:50:06;;;;;;;26.58;17.58;;;;;;;-1.71;100.00;103065.47;5039432;28;20029;-72
2024/01/28 00:52:32;;;;;;;25.77;17.95;;;;;;;-1.79;100.00;103061.72;5033434;28;20021;-73
2024/01/28 00:54:57;;;;;;;24.58;17.98;;;;;;;-1.78;100.00;103064.38;5042520;28;20273;-73
2024/01/28 00:57:22;;;;;;;29.80;18.40;;;;;;;-1.79;100.00;103052.16;5039376;28;20031;-73
2024/01/28 00:59:48;;;;;;;26.52;17.42;;;;;;;-1.80;100.00;103044.25;5043087;28;20028;-72
2024/01/28 01:02:13;;;;;;;25.90;18.58;;;;;;;-1.77;100.00;103040.03;5042889;28;20045;-72
2024/01/28 01:04:38;;;;;;;25.15;18.15;;;;;;;-1.73;100.00;103041.03;5042229;28;20029;-72
2024/01/28 01:07:04;;;;;;;29.90;17.98;;;;;;;-1.71;100.00;103039.38;5042480;28;20025;-73
2024/01/28 01:09:29;;;;;;;24.90;18.50;;;;;;;-1.69;100.00;103040.28;5042561;28;20028;-72
2024/01/28 01:11:54;;;;;;;26.67;17.50;;;;;;;-1.71;100.00;103018.47;5039838;28;20025;-72
2024/01/28 01:14:20;;;;;;;29.00;17.88;;;;;;;-1.71;100.00;103036.75;5041558;28;20471;-73
2024/01/28 01:16:45;;;;;;;26.48;17.65;;;;;;;-1.70;100.00;103025.47;5040183;28;20303;-73
2024/01/28 01:19:10;;;;;;;23.15;16.40;;;;;;;-1.68;100.00;103026.41;5042541;28;20043;-73
2024/01/28 01:21:36;;;;;;;26.00;16.67;;;;;;;-1.76;100.00;103020.94;5041697;28;20056;-72
2024/01/28 01:24:01;;;;;;;23.77;16.73;;;;;;;-1.71;100.00;103033.22;5040644;28;20180;-73
2024/01/28 01:26:26;;;;;;;22.63;16.70;;;;;;;-1.70;100.00;103032.41;5040570;28;20075;-73
2024/01/28 01:28:52;;;;;;;27.73;17.48;;;;;;;-1.71;100.00;103034.16;5040323;28;20490;-75
2024/01/28 01:31:17;;;;;;;29.95;17.05;;;;;;;-1.71;100.00;103028.94;5040628;28;20024;-72
2024/01/28 01:33:42;;;;;;;26.42;17.92;;;;;;;-1.70;100.00;103035.03;5038273;28;20033;-72
2024/01/28 01:36:08;;;;;;;25.92;17.85;;;;;;;-1.74;100.00;103018.38;5040534;28;20032;-73
2024/01/28 01:38:33;;;;;;;29.10;17.52;;;;;;;-1.73;100.00;103019.25;5041636;28;20117;-73
2024/01/28 01:40:59;;;;;;;25.45;16.88;;;;;;;-1.73;100.00;103024.47;5045836;28;20339;-73
2024/01/28 01:43:24;;;;;;;25.92;17.90;;;;;;;-1.80;100.00;103019.06;5043559;28;20017;-73
2024/01/28 01:45:51;;;;;;;25.20;17.00;;;;;;;-1.81;100.00;103021.59;5046586;28;20082;-73
2024/01/28 01:48:17;;;;;;;22.17;16.17;;;;;;;-1.88;100.00;103019.59;5051018;28;20281;-73
2024/01/28 01:50:43;;;;;;;25.13;16.83;;;;;;;-1.94;100.00;103030.72;5046281;28;20068;-73
2024/01/28 01:53:12;;;;;;;20.58;15.85;;;;;;;-1.96;100.00;103027.19;5037941;28;20436;-72
2024/01/28 01:55:39;;;;;;;21.30;16.33;;;;;;;-2.02;100.00;103032.16;5040930;28;20090;-73
2024/01/28 01:58:05;;;;;;;22.15;16.52;;;;;;;-2.05;100.00;103042.47;5040749;28;20028;-72
2024/01/28 02:00:32;;;;;;;23.83;15.70;;;;;;;-2.08;100.00;103032.84;5040805;28;20056;-73
2024/01/28 02:02:58;;;;;;;25.13;17.35;;;;;;;-2.11;100.00;103027.50;5042857;28;20117;-73
2024/01/28 02:05:23;;;;;;;23.52;16.35;;;;;;;-2.18;100.00;103020.28;5047688;28;20583;-73
2024/01/28 02:07:49;;;;;;;22.88;16.13;;;;;;;-2.21;100.00;103022.81;5046302;28;20033;-73
2024/01/28 02:10:15;;;;;;;21.25;15.38;;;;;;;-2.13;100.00;103023.97;5048398;28;20021;-73
2024/01/28 02:12:44;;;;;;;20.42;16.02;;;;;;;-2.25;100.00;103026.13;5044482;28;20028;-74
2024/01/28 02:15:10;;;;;;;23.75;16.30;;;;;;;-2.23;100.00;103026.16;5047214;28;20016;-74
2024/01/28 02:17:36;;;;;;;21.17;15.75;;;;;;;-2.16;100.00;103033.41;5044106;28;20025;-74
2024/01/28 02:20:02;;;;;;;20.67;15.15;;;;;;;-2.11;100.00;103032.72;5046669;28;20338;-74
2024/01/28 02:22:27;;;;;;;20.33;15.60;;;;;;;-2.07;100.00;103029.38;5047516;28;20285;-73
2024/01/28 02:24:53;;;;;;;22.65;15.23;;;;;;;-2.03;100.00;103014.75;5044341;28;20128;-73
2024/01/28 02:27:18;;;;;;;28.13;15.52;;;;;;;-2.11;100.00;103011.84;5046127;28;20032;-73
2024/01/28 02:29:44;;;;;;;25.38;15.80;;;;;;;-2.10;100.00;103003.19;5044933;28;20032;-73
2024/01/28 02:32:11;;;;;;;24.83;15.93;;;;;;;-2.15;100.00;102999.53;5046130;28;20082;-73
2024/01/28 02:34:37;;;;;;;24.00;15.85;;;;;;;-2.28;100.00;102971.22;5053482;28;20033;-73
2024/01/28 02:37:02;;;;;;;25.02;15.40;;;;;;;-2.17;100.00;102993.38;5044778;28;20791;-73
2024/01/28 02:39:28;;;;;;;22.52;14.52;;;;;;;-2.23;100.00;102984.44;5044496;28;20033;-73
2024/01/28 02:41:53;;;;;;;21.33;15.05;;;;;;;-2.23;100.00;102979.22;5046515;28;20107;-73
2024/01/28 02:44:19;;;;;;;21.08;15.43;;;;;;;-2.24;100.00;102972.22;5044145;28;20033;-73
2024/01/28 02:46:44;;;;;;;23.73;15.38;;;;;;;-2.24;100.00;102975.72;5044617;28;20032;-73
2024/01/28 02:49:09;;;;;;;19.10;14.45;;;;;;;-2.27;100.00;102968.66;5045298;28;20021;-73
2024/01/28 02:51:35;;;;;;;20.20;15.10;;;;;;;-2.27;100.00;102967.78;5034332;28;20025;-73
2024/01/28 02:54:01;;;;;;;23.60;15.00;;;;;;;-2.30;100.00;102970.28;5041817;28;20063;-73
2024/01/28 02:56:27;;;;;;;21.27;14.05;;;;;;;-2.40;100.00;102974.28;5041901;28;20027;-73
2024/01/28 02:58:53;;;;;;;21.20;14.93;;;;;;;-2.43;100.00;102958.50;5044195;28;20037;-74
2024/01/28 03:01:19;;;;;;;23.85;15.25;;;;;;;-2.32;100.00;102954.56;5042198;28;20281;-73
2024/01/28 03:03:45;;;;;;;23.65;14.88;;;;;;;-2.25;100.00;102963.53;5044917;28;20116;-73
2024/01/28 03:06:10;;;;;;;23.48;15.20;;;;;;;-2.25;100.00;102958.31;5043918;28;20139;-74
2024/01/28 03:08:35;;;;;;;19.73;13.70;;;;;;;-2.23;100.00;102953.13;5044141;28;20069;-73
2024/01/28 03:11:01;;;;;;;22.58;15.15;;;;;;;-2.21;100.00;102952.38;5045044;28;20025;-74
2024/01/28 03:13:26;;;;;;;27.25;14.70;;;;;;;-2.23;100.00;102961.84;5041710;28;20511;-73
2024/01/28 03:15:54;;;;;;;22.50;15.27;;;;;;;-2.25;100.00;102960.91;5043329;28;20419;-73
2024/01/28 03:18:21;;;;;;;18.35;13.13;;;;;;;-2.29;100.00;102966.84;5044989;28;20367;-73
2024/01/28 03:20:46;;;;;;;21.90;13.75;;;;;;;-2.37;100.00;102953.53;5042716;28;20044;-74
2024/01/28 03:23:12;;;;;;;20.20;14.32;;;;;;;-2.39;100.00;102952.56;5044293;28;20024;-74
2024/01/28 03:25:37;;;;;;;25.15;14.77;;;;;;;-2.48;100.00;102946.16;5043418;28;20148;-74
2024/01/28 03:28:03;;;;;;;18.08;14.35;;;;;;;-2.49;100.00;102944.38;5045241;28;20024;-74
2024/01/28 03:30:29;;;;;;;21.45;14.18;;;;;;;-2.57;100.00;102931.06;5043749;28;20032;-74
2024/01/28 03:32:54;;;;;;;20.35;13.82;;;;;;;-2.61;100.00;102931.78;5043524;28;20041;-73
2024/01/28 03:35:19;;;;;;;19.80;13.48;;;;;;;-2.60;100.00;102934.44;5044270;28;20028;-74
2024/01/28 03:37:46;;;;;;;20.00;13.48;;;;;;;-2.59;100.00;102945.75;5043771;28;20094;-73
2024/01/28 03:40:12;;;;;;;21.50;14.27;;;;;;;-2.72;100.00;102928.75;5022813;28;20036;-73
2024/01/28 03:42:37;;;;;;;23.73;14.45;;;;;;;-2.67;100.00;102944.59;5035774;28;20033;-73
2024/01/28 03:45:03;;;;;;;20.40;14.23;;;;;;;-2.68;100.00;102943.69;5043496;28;20524;-73
2024/01/28 03:47:28;;;;;;;19.90;13.10;;;;;;;-2.69;100.00;102947.13;5038212;28;20029;-73
2024/01/28 03:49:54;;;;;;;20.40;14.02;;;;;;;-2.69;100.00;102949.72;5043492;28;20435;-74
2024/01/28 03:52:19;;;;;;;22.08;14.13;;;;;;;-2.71;100.00;102948.81;5042576;28;20036;-73
2024/01/28 03:54:44;;;;;;;20.95;13.55;;;;;;;-2.67;100.00;102945.47;5043843;28;20039;-73
2024/01/28 03:57:10;;;;;;;22.83;13.38;;;;;;;-2.76;100.00;102947.72;5045848;28;20035;-74
2024/01/28 03:59:39;;;;;;;22.65;13.85;;;;;;;-2.69;100.00;102948.84;5042530;28;20070;-73
2024/01/28 04:02:05;;;;;;;18.30;13.20;;;;;;;-2.74;100.00;102927.84;5023947;28;20082;-74
2024/01/28 04:04:30;;;;;;;18.85;13.02;;;;;;;-2.64;100.00;102934.25;5045632;28;20490;-74
2024/01/28 04:06:55;;;;;;;18.92;13.93;;;;;;;-2.58;100.00;102930.16;5045632;28;20052;-73
2024/01/28 04:09:21;;;;;;;20.80;13.43;;;;;;;-2.55;100.00;102924.16;5043902;28;20032;-73
2024/01/28 04:11:46;;;;;;;24.23;14.48;;;;;;;-2.52;100.00;102922.56;5051534;28;20033;-73
2024/01/28 04:14:12;;;;;;;21.52;13.05;;;;;;;-2.51;100.00;102926.03;5043826;28;20109;-74
2024/01/28 04:16:37;;;;;;;23.25;14.20;;;;;;;-2.48;100.00;102933.09;5024147;28;20384;-73
2024/01/28 04:19:02;;;;;;;21.00;13.02;;;;;;;-2.53;100.00;102922.50;5043867;28;20048;-74
2024/01/28 04:21:29;;;;;;;19.10;13.00;;;;;;;-2.56;100.00;102933.72;5043935;28;20027;-74
2024/01/28 04:23:56;;;;;;;21.58;12.48;;;;;;;-2.58;100.00;102935.38;5039546;28;20041;-73
2024/01/28 04:26:22;;;;;;;23.85;13.07;;;;;;;-2.73;100.00;102916.56;5042822;28;20056;-73
2024/01/28 04:28:47;;;;;;;19.92;12.32;;;;;;;-2.69;100.00;102921.06;5041865;28;20152;-74
2024/01/28 04:31:13;;;;;;;17.63;12.20;;;;;;;-2.77;100.00;102915.56;5039179;28;20052;-74
2024/01/28 04:33:39;;;;;;;17.85;12.55;;;;;;;-2.76;100.00;102924.25;5042237;28;20081;-73
2024/01/28 04:36:05;;;;;;;16.83;12.48;;;;;;;-2.80;100.00;102914.56;5041394;28;20017;-73
2024/01/28 04:38:31;;;;;;;19.55;12.95;;;;;;;-2.78;100.00;102905.97;5048091;28;20111;-74
2024/01/28 04:40:56;;;;;;;19.48;13.18;;;;;;;-2.82;100.00;102917.13;5045726;28;20223;-74
2024/01/28 04:43:22;;;;;;;18.45;12.38;;;;;;;-2.87;100.00;102910.84;5043293;28;20110;-74
2024/01/28 04:45:47;;;;;;;18.75;12.65;;;;;;;-2.88;100.00;102909.09;5037595;28;20035;-73
2024/01/28 04:48:13;;;;;;;22.17;13.00;;;;;;;-2.92;100.00;102908.91;5043365;28;20148;-74
2024/01/28 04:50:38;;;;;;;19.75;13.13;;;;;;;-2.86;100.00;102901.31;5044225;28;20345;-73
2024/01/28 04:53:03;;;;;;;20.33;12.38;;;;;;;-2.86;100.00;102902.19;5040951;28;20037;-74
2024/01/28 04:55:29;;;;;;;16.60;12.65;;;;;;;-2.81;100.00;102905.84;5045177;28;20478;-74
2024/01/28 04:57:54;;;;;;;19.15;12.50;;;;;;;-2.78;100.00;102895.53;5040925;28;20033;-73
2024/01/28 05:00:20;;;;;;;17.85;11.80;;;;;;;-2.76;100.00;102887.78;5047036;28;20083;-73
2024/01/28 05:02:45;;;;;;;22.23;12.90;;;;;;;-2.74;100.00;102893.94;5042615;28;20048;-74
2024/01/28 05:05:12;;;;;;;20.33;11.48;;;;;;;-2.74;100.00;102904.38;5038437;28;20013;-74
2024/01/28 05:07:37;;;;;;;17.05;11.50;;;;;;;-2.73;100.00;102898.31;5042175;28;20028;-75
2024/01/28 05:10:03;;;;;;;17.38;11.38;;;;;;;-2.72;100.00;102889.66;5050186;28;20509;-74
2024/01/28 05:12:28;;;;;;;18.23;10.77;;;;;;;-2.73;100.00;102882.69;5043262;28;20028;-75
2024/01/28 05:14:54;;;;;;;17.85;11.23;;;;;;;-2.69;100.00;102879.34;5041244;28;20028;-72
2024/01/28 05:17:19;;;;;;;19.00;11.55;;;;;;;-2.64;100.00;102883.00;5041516;28;20549;-72
2024/01/28 05:19:45;;;;;;;16.13;10.55;;;;;;;-2.62;100.00;102875.25;5045428;28;20467;-72
2024/01/28 05:22:11;;;;;;;20.05;11.27;;;;;;;-2.70;100.00;102874.09;5046009;28;20346;-73
2024/01/28 05:24:36;;;;;;;20.02;11.57;;;;;;;-2.69;100.00;102884.56;5044406;28;20074;-73
2024/01/28 05:27:02;;;;;;;19.42;10.93;;;;;;;-2.69;100.00;102875.88;5046639;28;20028;-74
2024/01/28 05:29:28;;;;;;;14.93;11.02;;;;;;;-2.72;100.00;102875.75;5042598;28;20578;-75
2024/01/28 05:31:56;;;;;;;13.88;10.98;;;;;;;-2.80;100.00;102876.38;5043820;28;20052;-74
2024/01/28 05:34:21;;;;;;;17.52;10.32;;;;;;;-2.79;100.00;102877.25;5043653;28;20115;-74
2024/01/28 05:36:51;;;;;;;17.25;10.40;;;;;;;-2.80;100.00;102871.16;5041911;28;20158;-74
2024/01/28 05:39:17;;;;;;;19.17;11.25;;;;;;;-2.80;100.00;102870.25;5045059;28;20033;-74
2024/01/28 05:41:43;;;;;;;14.25;10.75;;;;;;;-2.80;100.00;102875.47;5041229;28;20040;-74
2024/01/28 05:44:08;;;;;;;17.17;11.32;;;;;;;-2.79;100.00;102866.84;5047339;28;20032;-75
2024/01/28 05:46:34;;;;;;;17.52;10.68;;;;;;;-2.78;100.00;102855.56;5042569;28;20041;-75
2024/01/28 05:48:59;;;;;;;18.27;10.73;;;;;;;-2.75;100.00;102842.66;5041587;28;20224;-74
2024/01/28 05:51:26;;;;;;;17.75;10.52;;;;;;;-2.73;100.00;102840.09;5047844;28;20052;-74
2024/01/28 05:53:53;;;;;;;22.80;10.85;;;;;;;-2.67;100.00;102842.94;5042972;28;20100;-74
2024/01/28 05:56:18;;;;;;;17.95;10.25;;;;;;;-2.67;100.00;102840.31;5046075;28;20562;-74
2024/01/28 05:58:43;;;;;;;19.52;10.30;;;;;;;-2.67;100.00;102846.44;5044580;28;20043;-73
2024/01/28 06:01:09;;;;;;;17.77;9.70;;;;;;;-2.71;100.00;102823.69;5040773;28;20466;-74
2024/01/28 06:03:34;;;;;;;21.23;10.10;;;;;;;-2.65;100.00;102839.53;5041007;28;20036;-74
2024/01/28 06:06:00;;;;;;;16.58;10.15;;;;;;;-2.69;100.00;102829.81;5041389;28;20368;-74
2024/01/28 06:08:25;;;;;;;22.63;10.75;;;;;;;-2.69;100.00;102818.53;5042325;28;20042;-74
2024/01/28 06:10:51;;;;;;;18.40;10.75;;;;;;;-2.80;100.00;102802.50;5043135;28;20036;-75
2024/01/28 06:13:16;;;;;;;16.67;9.85;;;;;;;-2.76;100.00;102820.94;5043543;28;20048;-74
2024/01/28 06:15:41;;;;;;;18.40;9.95;;;;;;;-2.73;100.00;102814.91;5041357;28;20051;-75
2024/01/28 06:18:07;;;;;;;17.92;9.80;;;;;;;-2.71;100.00;102810.66;5044003;28;20029;-75
2024/01/28 06:20:35;;;;;;;19.20;10.70;;;;;;;-2.75;100.00;102803.56;5043177;28;20032;-75
2024/01/28 06:23:01;;;;;;;16.08;10.40;;;;;;;-2.74;100.00;102809.66;5042139;28;20493;-75
2024/01/28 06:25:26;;;;;;;14.63;10.50;;;;;;;-2.79;100.00;102812.09;5042147;28;20041;-74
2024/01/28 06:27:51;;;;;;;14.40;10.68;;;;;;;-2.84;100.00;102809.34;5040695;28;20095;-74
2024/01/28 06:30:17;;;;;;;18.52;11.38;;;;;;;-2.78;100.00;102811.25;5044224;28;20033;-74
2024/01/28 06:32:42;;;;;;;18.20;10.70;;;;;;;-2.75;100.00;102808.78;5041230;28;20047;-74
2024/01/28 06:35:08;;;;;;;15.75;10.57;;;;;;;-2.78;100.00;102806.94;5040749;28;20013;-74
2024/01/28 06:37:34;;;;;;;19.58;11.23;;;;;;;-2.74;100.00;102797.50;5044679;28;20029;-75
2024/01/28 06:39:59;;;;;;;17.02;10.70;;;;;;;-2.74;100.00;102799.22;5041584;28;20083;-74
2024/01/28 06:42:28;;;;;;;18.65;10.43;;;;;;;-2.79;100.00;102796.47;5039731;28;20266;-74
2024/01/28 06:44:54;;;;;;;15.40;10.07;;;;;;;-2.76;100.00;102799.16;5040295;28;20029;-74
2024/01/28 06:47:19;;;;;;;17.02;10.80;;;;;;;-2.77;100.00;102802.59;5041163;28;20486;-74
2024/01/28 06:49:45;;;;;;;13.95;9.85;;;;;;;-2.82;100.00;102801.56;5048053;28;20056;-74
2024/01/28 06:52:11;;;;;;;18.27;10.52;;;;;;;-2.87;100.00;102800.53;5044719;28;20358;-74
2024/01/28 06:54:38;;;;;;;15.43;10.48;;;;;;;-2.93;100.00;102797.69;5043585;28;20119;-75
2024/01/28 06:57:04;;;;;;;16.45;10.45;;;;;;;-3.01;100.00;102790.50;5047221;28;20028;-74
2024/01/28 06:59:29;;;;;;;17.20;10.73;;;;;;;-2.97;100.00;102796.69;5044958;28;20032;-75
2024/01/28 07:01:56;;;;;;;17.00;10.73;;;;;;;-2.95;100.00;102796.75;5040666;28;20118;-75
2024/01/28 07:04:21;;;;;;;15.82;10.60;;;;;;;-2.91;100.00;102793.44;5045376;28;20021;-74
2024/01/28 07:06:46;;;;;;;17.27;11.43;;;;;;;-2.87;100.00;102782.28;5046165;28;20039;-74
2024/01/28 07:09:12;;;;;;;16.98;11.15;;;;;;;-2.84;100.00;102785.88;5044034;28;20032;-73
2024/01/28 07:11:38;;;;;;;14.63;10.75;;;;;;;-2.83;100.00;102784.16;5043574;28;20356;-73
2024/01/28 07:14:03;;;;;;;15.73;10.70;;;;;;;-2.81;100.00;102790.31;5042611;28;20093;-74
2024/01/28 07:16:29;;;;;;;19.23;10.32;;;;;;;-2.81;100.00;102779.88;5042933;28;20024;-74
2024/01/28 07:18:54;;;;;;;18.48;11.15;;;;;;;-2.77;100.00;102784.34;5041114;28;20505;-74
2024/01/28 07:21:19;;;;;;;21.73;11.20;;;;;;;-2.86;100.00;102773.63;5045248;28;20016;-74
2024/01/28 07:23:45;;;;;;;16.42;10.70;;;;;;;-2.79;100.00;102791.25;5046271;28;20046;-75
2024/01/28 07:26:10;;;;;;;16.67;10.85;;;;;;;-2.86;100.00;102781.44;5050170;28;20071;-74
2024/01/28 07:28:36;;;;;;;13.48;10.70;;;;;;;-2.84;100.00;102787.59;5042265;28;20028;-75
2024/01/28 07:31:01;;;;;;;15.95;10.68;;;;;;;-2.84;100.00;102778.06;5046458;28;20025;-74
2024/01/28 07:33:27;;;;;;;16.50;10.45;;;;;;;-2.82;100.00;102789.41;5047682;28;20039;-75
2024/01/28 07:35:52;;;;;;;18.75;10.80;;;;;;;-2.80;100.00;102784.25;5043822;28;20024;-75
2024/01/28 07:38:17;;;;;;;18.75;11.07;;;;;;;-2.80;100.00;102782.56;5044393;28;20546;-75
2024/01/28 07:40:43;;;;;;;18.75;11.38;;;;;;;-2.83;100.00;102760.72;5050929;28;20494;-75
2024/01/28 07:43:08;;;;;;;17.35;10.32;;;;;;;-2.73;100.00;102777.53;5042402;28;20525;-74
2024/01/28 07:45:37;;;;;;;19.90;11.88;;;;;;;-2.76;100.00;102773.09;5046698;28;20029;-74
2024/01/28 07:48:03;;;;;;;13.25;11.25;;;;;;;-2.76;100.00;102778.31;5044847;28;20114;-74
2024/01/28 07:50:28;;;;;;;13.85;10.32;;;;;;;-2.82;100.00;102765.97;5047820;28;20036;-74
2024/01/28 07:52:53;;;;;;;18.00;10.35;;;;;;;-2.82;100.00;102778.09;5042669;28;20024;-74
2024/01/28 07:55:19;;;;;;;15.63;11.00;;;;;;;-2.83;100.00;102776.34;5046640;28;20024;-74
2024/01/28 07:57:44;;;;;;;15.57;11.30;;;;;;;-2.85;100.00;102772.78;5042971;28;20033;-74
2024/01/28 08:00:10;;;;;;;18.42;11.68;;;;;;;-2.86;100.00;102776.22;5042521;28;20112;-74
2024/01/28 08:02:36;;;;;;;16.33;11.40;;;;;;;-2.82;100.00;102780.72;5021614;28;20029;-74
2024/01/28 08:05:01;;;;;;;16.83;11.63;;;;;;;-2.82;100.00;102779.00;5041422;28;20039;-75
2024/01/28 08:07:26;;;;;;;19.15;11.85;;;;;;;-2.82;100.00;102776.38;5045358;28;20037;-75
2024/01/28 08:09:52;;;;;;;17.35;11.98;;;;;;;-2.78;100.00;102773.06;5047947;28;20104;-75
2024/01/28 08:12:18;;;;;;;16.60;11.20;;;;;;;-2.68;100.00;102774.25;5041667;28;20490;-75
2024/01/28 08:14:43;;;;;;;16.17;10.95;;;;;;;-2.65;100.00;102765.66;5043309;28;20933;-74
2024/01/28 08:17:09;;;;;;;19.27;11.63;;;;;;;-2.60;100.00;102770.19;5046193;28;20032;-75
2024/01/28 08:19:36;;;;;;;18.65;10.63;;;;;;;-2.55;100.00;102776.47;5041770;28;20032;-75
2024/01/28 08:22:01;;;;;;;17.00;11.90;;;;;;;-2.56;100.00;102771.19;5042253;28;20075;-75
2024/01/28 08:24:30;;;;;;;18.67;11.63;;;;;;;-2.53;100.00;102761.75;5045891;28;20095;-75
2024/01/28 08:26:59;;;;;;;16.52;11.07;;;;;;;-2.45;100.00;102755.91;5043411;28;20390;-74
2024/01/28 08:29:25;;;;;;;13.20;10.52;;;;;;;-2.38;100.00;102747.44;5042424;28;20028;-74
2024/01/28 08:31:50;;;;;;;16.80;11.27;;;;;;;-2.32;100.00;102758.06;5022800;28;20398;-74
2024/01/28 08:34:15;;;;;;;19.13;11.38;;;;;;;-2.31;100.00;102758.13;5042289;28;20048;-74
2024/01/28 08:36:41;;;;;;;16.23;10.95;;;;;;;-2.30;100.00;102743.34;5042373;28;20133;-74
2024/01/28 08:39:09;;;;;;;20.95;11.30;;;;;;;-2.17;100.00;102753.38;5042293;28;20296;-74
2024/01/28 08:41:35;;;;;;;15.30;11.18;;;;;;;-2.11;100.00;102744.84;5029361;28;20074;-74
2024/01/28 08:44:01;;;;;;;16.08;11.00;;;;;;;-2.05;100.00;102748.53;5039552;28;20021;-74
2024/01/28 08:46:28;;;;;;;18.27;12.00;;;;;;;-2.04;100.00;102752.03;5043184;28;20495;-73
2024/01/28 08:48:54;;;;;;;15.00;11.20;;;;;;;-2.06;100.00;102745.84;5043505;28;20025;-73
2024/01/28 08:51:19;;;;;;;13.18;10.93;;;;;;;-2.02;100.00;102745.13;5050659;28;20028;-73
2024/01/28 08:53:44;;;;;;;23.48;11.57;;;;;;;-1.91;100.00;102748.06;5045075;28;20116;-74
2024/01/28 08:56:10;;;;;;;17.58;11.20;;;;;;;-1.84;100.00;102744.78;5046018;28;20063;-73
2024/01/28 08:58:35;;;;;;;17.55;10.88;;;;;;;-1.79;100.00;102749.34;5025716;28;20052;-74
2024/01/28 09:01:01;;;;;;;15.70;10.27;;;;;;;-1.70;100.00;102745.22;5046479;28;20032;-74
2024/01/28 09:03:26;;;;;;;15.02;11.23;;;;;;;-1.61;100.00;102750.72;5045690;28;20052;-74
2024/01/28 09:05:52;;;;;;;12.88;9.90;;;;;;;-1.57;100.00;102737.78;5048973;28;20384;-73
2024/01/28 09:08:17;;;;;;;16.08;10.40;;;;;;;-1.46;100.00;102739.81;5042040;28;20032;-74
2024/01/28 09:10:43;;;;;;;15.02;9.80;;;;;;;-1.38;100.00;102740.94;5041489;28;20029;-74
2024/01/28 09:13:08;;;;;;;15.60;10.43;;;;;;;-1.37;100.00;102729.66;5045897;28;20019;-74
2024/01/28 09:15:33;;;;;;;11.73;9.40;;;;;;;-1.27;100.00;102736.91;5046738;28;20021;-73
2024/01/28 09:17:59;;;;;;;14.90;10.40;;;;;;;-1.34;100.00;102717.56;5043732;28;20036;-73
2024/01/28 09:20:24;;;;;;;20.52;11.13;;;;;;;-1.17;100.00;102736.34;5035851;28;20028;-73
2024/01/28 09:22:50;;;;;;;16.85;9.80;;;;;;;-1.22;100.00;102727.47;5037616;28;20235;-73
2024/01/28 09:25:15;;;;;;;13.70;9.93;;;;;;;-1.08;100.00;102731.34;5042972;28;20086;-73
2024/01/28 09:27:41;;;;;;;15.77;10.38;;;;;;;-1.03;100.00;102727.13;5040734;28;20044;-74
2024/01/28 09:30:06;;;;;;;14.75;9.80;;;;;;;-0.98;100.00;102732.47;5040347;28;20025;-74
2024/01/28 09:32:32;;;;;;;13.43;9.85;;;;;;;-0.95;100.00;102719.50;5045901;28;20029;-74
2024/01/28 09:34:57;;;;;;;15.20;10.25;;;;;;;-0.92;100.00;102723.91;5040876;28;20105;-73
2024/01/28 09:37:23;;;;;;;14.32;10.32;;;;;;;-0.89;100.00;102717.03;5041720;28;20142;-74
2024/01/28 09:39:48;;;;;;;12.00;10.10;;;;;;;-0.85;100.00;102712.78;5041578;28;20025;-74
2024/01/28 09:42:29;;;;;;;15.27;10.23;;;;;;;-0.80;100.00;102705.91;5023125;28;20104;-74
2024/01/28 09:44:54;;;;;;;13.43;9.85;;;;;;;-0.78;100.00;102697.28;5042106;28;20037;-73
2024/01/28 09:47:19;;;;;;;17.58;10.30;;;;;;;-0.65;100.00;102710.66;5040999;28;20028;-74
2024/01/28 09:49:46;;;;;;;17.75;10.15;;;;;;;-0.58;100.00;102721.31;5041265;28;20575;-76
2024/01/28 09:52:13;;;;;;;12.50;9.63;;;;;;;-0.47;100.00;102724.19;5040984;28;20025;-74
2024/01/28 09:54:41;;;;;;;10.85;8.60;;;;;;;-0.40;100.00;102706.94;5033436;28;20063;-74
2024/01/28 09:57:07;;;;;;;11.63;8.82;;;;;;;-0.26;100.00;102713.34;5040363;28;20033;-75
2024/01/28 09:59:35;;;;;;;10.93;9.10;;;;;;;-0.15;100.00;102701.41;5040460;28;20107;-74
2024/01/28 10:02:02;;;;;;;11.40;7.80;;;;;;;-0.03;100.00;102695.59;5040695;28;20675;-74
2024/01/28 10:04:29;;;;;;;11.70;8.60;;;;;;;0.02;100.00;102706.16;5036858;28;20029;-73
2024/01/28 10:06:57;;;;;;;13.00;8.55;;;;;;;0.06;100.00;102700.13;5043545;28;20546;-74
2024/01/28 10:09:27;;;;;;;11.77;8.82;;;;;;;0.18;100.00;102703.91;5019129;28;20112;-73
2024/01/28 10:11:52;;;;;;;13.13;8.57;;;;;;;0.21;100.00;102696.13;5041583;28;20032;-75
2024/01/28 10:14:18;;;;;;;11.68;8.10;;;;;;;0.31;100.00;102697.19;5043488;28;20056;-74
2024/01/28 10:16:48;;;;;;;12.43;7.70;;;;;;;0.40;100.00;102700.00;5039771;28;20056;-74
2024/01/28 10:19:13;;;;;;;11.95;7.93;;;;;;;0.49;100.00;102686.19;5040640;28;20525;-75
2024/01/28 10:21:39;;;;;;;10.88;8.38;;;;;;;0.47;100.00;102691.41;5035652;28;20186;-75
2024/01/28 10:24:04;;;;;;;11.60;8.45;;;;;;;0.51;100.00;102696.72;5043991;28;20362;-74
2024/01/28 10:26:30;;;;;;;12.85;7.88;;;;;;;0.64;100.00;102693.50;5046458;28;20226;-74
2024/01/28 10:28:55;;;;;;;16.40;8.73;;;;;;;0.70;100.00;102690.97;5047265;28;20115;-74
2024/01/28 10:31:24;;;;;;;11.15;7.75;;;;;;;0.77;100.00;102687.63;5044991;28;20482;-76
2024/01/28 10:33:49;;;;;;;8.77;7.47;;;;;;;0.84;100.00;102670.28;5044917;28;20021;-78
2024/01/28 10:36:16;;;;;;;9.50;7.25;;;;;;;1.03;100.00;102684.59;5045684;28;20044;-76
2024/01/28 10:38:44;;;;;;;11.75;7.38;;;;;;;1.10;100.00;102696.97;5043374;28;20340;-76
2024/01/28 10:41:14;;;;;;;14.60;7.07;;;;;;;1.17;100.00;102678.75;5046190;28;20040;-76
2024/01/28 10:43:42;;;;;;;12.65;7.07;;;;;;;1.26;100.00;102685.03;5040961;28;20165;-74
2024/01/28 10:46:10;;;;;;;9.85;7.05;;;;;;;1.27;100.00;102677.16;5045337;28;20025;-76
2024/01/28 10:48:41;;;;;;;9.98;6.47;;;;;;;1.36;100.00;102669.44;5045553;28;20063;-78
2024/01/28 10:51:09;;;;;;;9.98;6.43;;;;;;;1.46;100.00;102667.84;5045358;28;20040;-75
2024/01/28 10:53:36;;;;;;;11.73;7.18;;;;;;;1.45;100.00;102659.09;5045421;28;20028;-78
2024/01/28 10:56:01;;;;;;;9.98;6.72;;;;;;;1.47;100.00;102654.75;5044317;28;20415;-76
2024/01/28 10:58:30;;;;;;;9.43;6.20;;;;;;;1.65;100.00;102642.78;5045446;28;20254;-73